首页
METAR-TAF:

METAR-TAF

机场 :

蒙塞拉特島, 蒙塞拉特島

纬度: 16-47-29N, 经度: 062-11-36W, 海拔: 168米

当前天气观测

该预报发布于19分钟前的22:00 UTC
风速7节,风向东南,在之间变化
温度 26°C
湿度 89%
气压 1016 hPa
能见度10公里或以上
少量云层高于2100英尺
散云层高于4500英尺
小雨,

METAR: TRPG 262200Z 14007KT 100V180 9999 -RA FEW021 SCT045 26/24 Q1016

时间: 18:19 (22:19 UTC)

预报

该预报发布于5小时和19分钟前的17:00 UTC
预报有效从26日的 18点(UTC)到 27日的 18点(UTC)
风速12节,风向东转东南
能见度10公里或以上
少量云层高于1200英尺, 积雨云.
散云层高于1400英尺
多云层高于3500英尺
小雨
几率 40% :
短暂存在
从 26日的 18点(UTC)到 26日的 21点(UTC)
能見度: 4800
雷暴, 雨
成为
从 26日的 22点(UTC)到 26日的 24点(UTC)
散云层高于1800英尺
散云层高于3800英尺
几率 40% :
短暂存在
从 26日的 24点(UTC)到 27日的 06点(UTC)
阵雨,

TAF: TRPG 261700Z 2618/2718 12012KT -RA 9999 FEW012CB SCT014 BKN035 PROB40 TEMPO 2618/2621 4800 TSRA BECMG 2622/2624 SCT018 SCT038 PROB40 TEMPO 2624/2706 SHRA

超过4000个机场的气象观测和天气预报(METAR&TAF报告)。

可查询的气象台以黄色和红色小点在地图上表示。

将鼠标移到小点上方,可查看气象台名称。

然后点击查看天气观测和预报。

如需切换地图:点击带黑十字的绿色按钮放大地图;点击带横线的绿色按钮缩小地图;或者点击绿色箭头查看邻近地区的地图。


METAR-TAF: